Timeline UpdatesTrip UpdatesNews PostsPvt PostsTravel TipsAdmin PostsConv PostsFollowed PostsChat RequestsBlog PostsPNR Posts

Disclaimer
Search
 
 
Fri Apr 18, 2014 16:09:12 ISTHomeTrainsΣChainsAtlasPNRForumGalleryNewsFAQTripsMembersLoginFeedback
No Recent News for this Train
Other Trains in the News **new
Latest...
⇐ Return Journey: Train# 59342

59341/Nagda Bina Passenger (UnReserved)

Sep 16 2013 (8:00PM)
Change Departure Station:
Change Arrival Station:
Post a Train Travel TipPost a Train Travel Tip **new
Post a Comment/Question/Picture/VideoPost a Comment/Question/Picture/Video
Pantry/Catering
✕ NO Pantry Car
✕ NO Catering
RSA - Rake Sharing
59307/59354/59353/59318/59346/59345/59341/59342/59317/59306; Entry# 518023
Rake/Coach Composition
Loco
News    PNR    Forum    Time-Table    Availability    Fare Chart    Map    Arr/Dep History    Trips    Gallery    ΣChains    X/O    Timeline    
Travel Time: 2h 44m    9 halts    Distance: 87 km    Avg Speed: 31 km/hr
Type: Passenger
Zone: WR/Western
Departs @ 11:35 (Avg 16m late)
Platform# ???
SMTWTFS
Nagda Junction/NAD 
Arrives @ 14:19 (Avg 20m late)
Platform# ???
SMTWTFS
Tarana Road/TAN 

9 halts. 12 intermediate Stations between Nagda Junction and Tarana Road

Show ALL intermediate Stations  Show Old Time-Table

#CodeStation NameX/OArrivesAvgDepartsAvgHaltPFDay#KmSpeedElevZoneAddress
1NAD»Nagda Junction (4)»  -11:35+16--10.043468mWRNagda, Madhya Pradesh
2PPGPiploda Bagla  11:51+1411:52+141m--111.552475mWRPiploda Sagotimata, Madhya Pradesh
3UNLUnhel  12:00+1412:01+141m--118.558484mWRUjjain, Madhya Pradesh
4PSOPalsora MakrawaX  12:10+1412:11+151m--127.252499mWRUjjain, Madhya Pradesh
5ASLAslaoda  12:21+1312:22+141m--135.946485mWRUjjain, Madhya Pradesh
6NKINaikheriX  12:33+1312:34+141m--144.219504mWRUjjain, Madhya Pradesh
7UJNUjjain Junction (8)X  13:10+213:40+1230m--155.645492mWRUjjain, Madhya Pradesh
8PLWPingleshwar  13:52+2313:53+231m--164.649509mWRMaksi, Madhya Pradesh
9TJPTajpur (2)  14:01+2314:02+231m--171.147528mWRMaksi, Madhya Pradesh
10SVTShivpura  14:10+2114:11+211m--177.373504mWRMaksi, Madhya Pradesh
11TAN•Tarana Road•XO  14:19+2014:20+291m--187.111498mWRMaksi, Madhya Pradesh
12MKCMaksi Junction (3)  15:13-215:15+02m--196.768510mWRMakshi, Madhya Pradesh
13SYOSiroliya  15:24+015:25+01m--1106.933462mWCRShajapur, Madhya Pradesh
14CAZChauhani  15:34+315:35+31m--1111.963478mWCRShajapur, Madhya Pradesh
15SFYShajapurX  15:47+315:49+42m--1124.461450mWCRShajapur, Madhya Pradesh
16SFWSarangpur  16:15+316:17+52m--1151.049422mWCRSarangpur, Madhya Pradesh
17PQUParhana Mau (1)X  16:29+616:30+131m11160.840440mWCRNational Highway 3, Madhya Pradesh
18UDKUdyan Kheri (1)  16:44+1116:45+111m11170.168435mWCRUdankheri, Madhya Pradesh
19PFRPachor Road  16:57+1116:58+181m--1183.767419mWCRPachore, Madhya Pradesh
20BRRGBiyavra Rajgarh  17:24+1917:25+201m--1212.966423mWCRBiaora, Madhya Pradesh
21SFZSinduriya Kachari (2)  17:34+2417:35+271m21222.965428mWCRGuna, Madhya Pradesh
22CBKChachaura Binaganj (1)  17:54+2717:55+281m11243.362435mWCRGuna, Madhya Pradesh
23KHRJKumbhraj (1)  18:17+2518:18+261m11266.081401mWCRManpura, Madhya Pradesh
24RGGRadogarh (1)  18:27+3418:28+341m11278.138417mWCRVijaypur, Madhya Pradesh
25VJPVijay Pur  18:39+3418:40+351m--1285.116420mWCRVijaipur, Madhya Pradesh
26RTARuthiyai Junction (2)  19:00+2619:05+265m--1290.363414mWCRRuthiyai, Madhya Pradesh
27MUGAMahugara  19:18+2719:20+292m--1303.930501mWCRRuthiyai, Madhya Pradesh
28GUNAGuna Junction (3)  19:35+2819:45+3410m21311.255477mWCRJn Point Indore/Gwalior/Bina/Kota, Madhya Pradesh
29MABNMaban  19:52+3619:53+391m--1317.653501mWCRState Highway 23, Madhya Pradesh
30PGAPagara  20:01+3920:03+402m--1324.764494mWCRGuna, Madhya Pradesh
31PIGTPilighat  20:09+4020:10+411m--1331.139471mWCRGUNA Rd, Madhya Pradesh
32SHDRShadhoragaonX  20:24+4020:25+401m--1340.161504mWCRGuna, Madhya Pradesh
33RIKARatikheda  20:33+4120:35+412m--1348.254526mWCRGuna, Madhya Pradesh
34ASKNAshok Nagar (2)  20:43+3820:45+392m--1355.491502mWCRAshoknagar, Madhya Pradesh
35HPKAHinotia Pipalkhera  20:51+4320:52+441m--1364.536460mWCRAshoknagar, Madhya Pradesh
36ORROrrX  20:58+4421:00+442m--1368.159450mWCRAshoknagar, Madhya Pradesh
37PIAPipraigaon (3)  21:14+4621:16+472m21381.882451mWCRAshoknagar, Madhya Pradesh
38GVBGuneru Bamori (2)  21:24+4821:26+482m--1392.763427mWCRAshoknagar, Madhya Pradesh
39MNVMungaoli (2)  21:34+4921:36+492m--1401.160403mWCRAshoknagar, Madhya Pradesh
40KXBKanjiya  21:44+5021:46+502m--1409.1123390mWCRMungaoli, Madhya Pradesh
41SRKISemarkheriX  21:50+5221:52+522m--1417.351412mWCRBina, Madhya Pradesh
42MDVKMahadeokhedi  21:58+2622:00+272m--1422.45423mWCRBina, Madhya Pradesh
43BINABina Junction (5)  23:25+17-51430.1-414mWCRJn Pt - KATNI/GUNA/ BPL/JHS, Madhya Pradesh
Scroll to Top
Scroll to Bottom